Time;durP1;ratioP1;P1;durP2;ratioP2;P2;SDS_P1;SDS_P2;PMS_P1;PMS_P2;Temp;Humidity;BMP_temperature;BMP_pressure;BME280_temperature;BME280_humidity;BME280_pressure;Samples;Min_cycle;Max_cycle;Signal;HPM_P1;HPM_P2
2022/04/18 00:02:21;;;;;;;6.32;2.85;;;6.50;75.80;;;;;;4965838;28;20049;-78
2022/04/18 00:04:47;;;;;;;14.93;6.18;;;6.50;75.80;;;;;;4966315;28;20030;-78
2022/04/18 00:07:13;;;;;;;7.15;3.90;;;6.50;76.10;;;;;;4964337;28;20046;-78
2022/04/18 00:09:38;;;;;;;6.97;3.47;;;6.40;76.50;;;;;;4969218;28;20033;-78
2022/04/18 00:12:05;;;;;;;6.10;2.97;;;6.40;76.50;;;;;;4967064;28;20459;-78
2022/04/18 00:14:30;;;;;;;4.57;2.63;;;6.40;76.80;;;;;;4970216;28;20479;-77
2022/04/18 00:16:57;;;;;;;7.18;2.80;;;6.30;77.10;;;;;;4965173;28;20027;-77
2022/04/18 00:19:23;;;;;;;6.20;2.80;;;6.30;77.60;;;;;;4967386;28;20138;-80
2022/04/18 00:21:49;;;;;;;5.20;2.63;;;6.20;78.30;;;;;;4964479;28;20102;-79
2022/04/18 00:24:17;;;;;;;7.10;2.90;;;6.10;79.00;;;;;;4966100;28;20027;-79
2022/04/18 00:26:43;;;;;;;5.68;3.28;;;6.10;79.30;;;;;;4965416;28;20027;-79
2022/04/18 00:29:09;;;;;;;7.80;2.60;;;6.00;79.80;;;;;;4963002;28;20038;-79
2022/04/18 00:31:35;;;;;;;5.53;3.05;;;5.90;80.40;;;;;;4962625;28;20031;-79
2022/04/18 00:34:01;;;;;;;5.93;3.35;;;5.90;80.70;;;;;;4964629;28;20031;-79
2022/04/18 00:36:27;;;;;;;5.35;3.08;;;5.90;81.10;;;;;;4965657;28;20062;-78
2022/04/18 00:38:52;;;;;;;6.95;2.80;;;5.80;81.60;;;;;;4962086;28;20028;-78
2022/04/18 00:41:18;;;;;;;3.95;2.50;;;5.80;82.00;;;;;;4975797;23;20050;-78
2022/04/18 00:43:46;;;;;;;5.32;2.70;;;5.80;82.40;;;;;;4964230;28;20030;-78
2022/04/18 00:46:13;;;;;;;4.53;2.90;;;5.70;82.90;;;;;;4970531;28;20031;-79
2022/04/18 00:48:39;;;;;;;8.00;3.05;;;5.70;83.40;;;;;;4967739;28;20030;-78
2022/04/18 00:51:07;;;;;;;5.63;2.95;;;5.70;84.10;;;;;;4965379;28;20027;-78
2022/04/18 00:53:35;;;;;;;4.47;2.60;;;5.60;84.80;;;;;;4967329;28;20027;-78
2022/04/18 00:56:06;;;;;;;5.50;3.13;;;5.60;85.20;;;;;;4965501;28;20114;-78
2022/04/18 00:58:32;;;;;;;5.25;2.95;;;5.50;85.80;;;;;;4967517;28;20031;-79
2022/04/18 01:00:58;;;;;;;7.93;3.60;;;5.50;85.90;;;;;;4978663;28;20483;-78
2022/04/18 01:03:24;;;;;;;6.55;3.78;;;5.50;86.80;;;;;;4968677;28;20117;-78
2022/04/18 01:05:49;;;;;;;7.93;4.07;;;5.40;87.00;;;;;;4964216;28;20026;-78
2022/04/18 01:08:15;;;;;;;8.15;4.75;;;5.40;87.20;;;;;;4963067;28;20063;-79
2022/04/18 01:10:42;;;;;;;5.72;4.07;;;5.40;88.00;;;;;;4964917;28;20514;-78
2022/04/18 01:13:08;;;;;;;7.38;4.63;;;5.40;88.30;;;;;;4964986;28;20090;-78
2022/04/18 01:15:33;;;;;;;5.15;4.05;;;5.40;88.30;;;;;;4965748;28;20122;-78
2022/04/18 01:17:59;;;;;;;5.38;3.78;;;5.40;88.70;;;;;;4967307;28;20023;-78
2022/04/18 01:20:37;;;;;;;6.88;3.78;;;5.40;88.50;;;;;;4967846;28;20023;-78
2022/04/18 01:23:06;;;;;;;5.93;3.33;;;5.30;88.50;;;;;;4978932;28;20023;-79
2022/04/18 01:31:20;;;;;;;;;;;5.20;90.20;;;;;;4946275;28;20134;-78
2022/04/18 01:33:46;;;;;;;6.18;2.65;;;5.20;90.30;;;;;;4954855;28;20390;-78
2022/04/18 01:36:11;;;;;;;5.57;2.85;;;5.10;90.30;;;;;;4966481;28;20030;-78
2022/04/18 01:38:37;;;;;;;7.82;3.45;;;5.10;90.40;;;;;;4962596;28;20458;-78
2022/04/18 01:41:03;;;;;;;5.30;2.97;;;5.10;90.40;;;;;;4962906;28;20480;-79
2022/04/18 01:43:28;;;;;;;5.60;2.83;;;5.00;90.50;;;;;;4963792;28;20029;-78
2022/04/18 01:45:54;;;;;;;5.00;2.75;;;5.00;90.60;;;;;;4966120;28;20066;-78
2022/04/18 01:48:19;;;;;;;4.68;3.00;;;4.90;91.00;;;;;;4965707;28;20055;-78
2022/04/18 01:50:45;;;;;;;5.43;3.17;;;4.90;91.10;;;;;;4965054;28;20038;-78
2022/04/18 01:53:12;;;;;;;4.97;3.05;;;4.90;91.30;;;;;;4981366;28;20027;-78
2022/04/18 01:55:37;;;;;;;5.55;2.83;;;4.80;91.40;;;;;;4964335;28;20042;-79
2022/04/18 01:58:05;;;;;;;6.38;3.28;;;4.80;91.60;;;;;;4963586;28;20023;-78
2022/04/18 02:00:32;;;;;;;5.28;3.08;;;4.70;92.30;;;;;;4965052;28;20026;-78
2022/04/18 02:02:58;;;;;;;5.82;2.97;;;4.70;92.20;;;;;;4964265;28;20026;-78
2022/04/18 02:05:23;;;;;;;5.00;2.78;;;4.60;92.60;;;;;;4965053;28;20407;-78
2022/04/18 02:07:49;;;;;;;8.40;3.45;;;4.50;93.00;;;;;;4962406;28;20049;-79
2022/04/18 02:10:15;;;;;;;6.78;4.00;;;4.50;93.20;;;;;;4965914;28;20109;-78
2022/04/18 02:12:41;;;;;;;7.45;3.50;;;4.50;93.60;;;;;;4960593;28;20031;-78
2022/04/18 02:15:07;;;;;;;5.70;3.30;;;4.60;93.80;;;;;;4966399;28;20058;-78
2022/04/18 02:17:33;;;;;;;5.15;3.00;;;4.60;93.40;;;;;;4963643;28;20034;-78
2022/04/18 02:19:59;;;;;;;6.13;2.50;;;4.50;93.50;;;;;;4964229;28;20034;-78
2022/04/18 02:22:24;;;;;;;4.68;3.03;;;4.60;93.50;;;;;;4960579;28;20038;-78
2022/04/18 02:24:50;;;;;;;3.63;2.60;;;4.50;93.80;;;;;;4966387;28;20022;-78
2022/04/18 02:27:16;;;;;;;5.53;2.97;;;4.50;93.80;;;;;;4961742;28;20566;-78
2022/04/18 02:29:45;;;;;;;6.28;3.00;;;4.40;94.20;;;;;;4976336;28;20078;-78
2022/04/18 02:34:55;;;;;;;5.18;3.55;;;4.40;94.60;;;;;;4991619;28;20086;-78
2022/04/18 02:37:21;;;;;;;7.38;3.05;;;4.30;94.80;;;;;;4987725;28;20023;-78
2022/04/18 02:39:46;;;;;;;5.80;3.63;;;4.30;95.10;;;;;;4987119;28;20026;-78
2022/04/18 02:42:12;;;;;;;6.13;3.30;;;4.20;95.20;;;;;;4980063;28;20030;-78
2022/04/18 02:44:38;;;;;;;6.20;2.90;;;4.10;95.60;;;;;;4969739;28;20038;-78
2022/04/18 02:47:04;;;;;;;5.15;3.22;;;4.10;96.00;;;;;;4969277;28;20509;-77
2022/04/18 02:49:31;;;;;;;4.88;3.20;;;4.10;96.40;;;;;;4966718;28;20019;-78
2022/04/18 02:51:56;;;;;;;4.88;3.08;;;4.20;96.70;;;;;;4969198;28;20554;-79
2022/04/18 02:54:22;;;;;;;5.85;2.67;;;4.10;96.70;;;;;;4970697;28;20031;-78
2022/04/18 02:56:48;;;;;;;5.88;2.90;;;4.10;96.70;;;;;;4961909;28;20023;-78
2022/04/18 02:59:13;;;;;;;6.72;3.05;;;4.10;96.90;;;;;;4967783;28;20023;-78
2022/04/18 03:01:39;;;;;;;7.15;2.90;;;4.00;96.90;;;;;;4985913;28;20023;-79
2022/04/18 03:04:05;;;;;;;4.72;2.90;;;4.00;97.00;;;;;;4969290;28;20033;-78
2022/04/18 03:06:30;;;;;;;5.38;3.13;;;4.00;97.30;;;;;;4966602;28;20496;-78
2022/04/18 03:08:56;;;;;;;3.65;3.03;;;4.00;96.80;;;;;;4968360;28;20057;-78
2022/04/18 03:11:21;;;;;;;4.32;2.85;;;3.90;97.10;;;;;;4965549;28;20107;-79
2022/04/18 03:13:47;;;;;;;4.57;2.95;;;3.80;97.60;;;;;;4968985;28;20027;-78
2022/04/18 03:16:13;;;;;;;4.55;2.80;;;3.80;97.50;;;;;;4967473;28;20082;-79
2022/04/18 03:18:40;;;;;;;5.93;2.92;;;3.70;98.10;;;;;;4966652;28;20628;-79
2022/04/18 03:21:06;;;;;;;7.72;3.42;;;3.70;98.40;;;;;;4967780;28;20175;-79
2022/04/18 03:23:32;;;;;;;7.30;3.08;;;3.70;98.40;;;;;;4968310;28;20675;-79
2022/04/18 03:25:58;;;;;;;6.28;3.13;;;3.60;98.40;;;;;;4968707;28;20513;-79
2022/04/18 03:28:25;;;;;;;4.30;2.72;;;3.60;98.50;;;;;;4966599;28;20114;-79
2022/04/18 03:30:51;;;;;;;6.53;3.60;;;3.60;98.80;;;;;;4967029;28;20047;-79
2022/04/18 03:33:17;;;;;;;5.72;2.80;;;3.60;99.10;;;;;;4966467;28;20301;-79
2022/04/18 03:39:50;;;;;;;8.07;3.33;;;3.50;98.90;;;;;;4969294;28;20039;-79
2022/04/18 03:41:14;;;;;;;7.43;3.10;;;3.50;99.90;;;;;;4966885;28;20046;-79
2022/04/18 03:43:40;;;;;;;4.70;3.03;;;3.50;99.90;;;;;;4968995;28;20019;-80
2022/04/18 03:46:05;;;;;;;3.97;2.78;;;3.50;99.90;;;;;;4967291;28;20396;-80
2022/04/18 03:48:32;;;;;;;8.45;3.30;;;3.50;99.90;;;;;;4965548;28;20121;-80
2022/04/18 03:50:57;;;;;;;7.30;3.25;;;3.50;99.90;;;;;;4967806;28;20484;-80
2022/04/18 03:53:23;;;;;;;6.13;3.67;;;3.50;99.90;;;;;;4954908;28;20059;-81
2022/04/18 03:55:49;;;;;;;5.38;3.03;;;3.40;99.90;;;;;;4969280;28;20035;-81
2022/04/18 03:58:14;;;;;;;5.30;3.28;;;3.40;99.90;;;;;;4965899;28;20074;-80
2022/04/18 04:00:42;;;;;;;7.28;3.13;;;3.40;99.90;;;;;;4964699;28;20030;-80
2022/04/18 04:03:08;;;;;;;8.73;3.50;;;3.40;99.90;;;;;;4978092;28;20052;-80
2022/04/18 04:05:35;;;;;;;6.25;3.10;;;3.40;99.90;;;;;;4971192;28;20030;-81
2022/04/18 04:08:00;;;;;;;6.18;3.65;;;3.40;99.90;;;;;;4981714;28;20130;-80
2022/04/18 04:10:26;;;;;;;6.95;3.03;;;3.40;99.90;;;;;;4966520;28;20432;-82
2022/04/18 04:12:52;;;;;;;4.15;2.70;;;3.30;99.90;;;;;;4965156;28;20031;-81
2022/04/18 04:15:18;;;;;;;5.75;2.75;;;3.40;99.90;;;;;;4967990;28;20034;-81
2022/04/18 04:17:44;;;;;;;5.00;2.88;;;3.40;99.90;;;;;;4966281;28;20042;-80
2022/04/18 04:20:10;;;;;;;4.78;2.88;;;3.40;99.90;;;;;;4964490;28;20030;-81
2022/04/18 04:22:36;;;;;;;6.68;3.22;;;3.30;99.90;;;;;;4964351;28;20031;-80
2022/04/18 04:25:02;;;;;;;5.07;3.15;;;3.30;99.90;;;;;;4969938;28;20037;-81
2022/04/18 04:27:30;;;;;;;6.57;3.47;;;3.30;99.90;;;;;;4979473;28;20089;-81
2022/04/18 04:29:56;;;;;;;8.27;2.70;;;3.30;99.90;;;;;;4986727;28;20042;-80
2022/04/18 04:32:23;;;;;;;4.95;2.83;;;3.30;99.90;;;;;;4989823;28;20023;-81
2022/04/18 04:34:50;;;;;;;6.30;3.35;;;3.30;99.90;;;;;;4988998;28;20394;-80
2022/04/18 04:37:16;;;;;;;7.22;3.90;;;3.30;99.90;;;;;;4987526;28;20018;-80
2022/04/18 04:39:42;;;;;;;6.35;3.25;;;3.20;99.90;;;;;;4982177;28;20037;-80
2022/04/18 04:42:07;;;;;;;6.85;3.45;;;3.20;99.90;;;;;;4986848;28;20030;-80
2022/04/18 04:44:33;;;;;;;6.43;3.85;;;3.20;99.90;;;;;;4989818;28;20099;-80
2022/04/18 04:46:59;;;;;;;6.72;3.67;;;3.20;99.90;;;;;;4985656;28;20089;-80
2022/04/18 04:49:25;;;;;;;5.43;3.08;;;3.20;99.90;;;;;;4984551;28;20028;-80
2022/04/18 04:51:50;;;;;;;9.00;3.80;;;3.20;99.90;;;;;;4976187;28;20031;-80
2022/04/18 04:54:16;;;;;;;6.60;3.58;;;3.20;99.90;;;;;;4979493;28;20034;-80
2022/04/18 04:56:41;;;;;;;4.45;2.97;;;3.20;99.90;;;;;;4982046;28;20045;-80
2022/04/18 04:59:08;;;;;;;5.82;3.42;;;3.20;99.90;;;;;;4988169;28;20050;-80
2022/04/18 05:01:33;;;;;;;5.15;3.30;;;3.30;99.90;;;;;;4985549;28;20023;-80
2022/04/18 05:03:59;;;;;;;6.35;3.20;;;3.20;99.90;;;;;;4982582;28;20041;-80
2022/04/18 05:06:25;;;;;;;6.40;3.30;;;3.20;99.90;;;;;;4978930;28;20041;-80
2022/04/18 05:08:50;;;;;;;6.22;3.92;;;3.20;99.90;;;;;;4984215;28;20132;-79
2022/04/18 05:11:16;;;;;;;5.63;3.35;;;3.10;99.90;;;;;;4985476;28;20033;-79
2022/04/18 05:13:42;;;;;;;7.05;3.50;;;3.20;99.90;;;;;;4983196;28;20487;-79
2022/04/18 05:16:07;;;;;;;4.97;3.65;;;3.30;99.90;;;;;;4986131;28;20484;-79
2022/04/18 05:18:33;;;;;;;7.05;2.95;;;3.40;99.90;;;;;;4984448;28;20034;-79
2022/04/18 05:20:59;;;;;;;7.45;3.47;;;3.50;99.90;;;;;;4984712;28;20018;-79
2022/04/18 05:23:24;;;;;;;7.03;3.80;;;3.70;99.90;;;;;;4986461;28;20023;-79
2022/04/18 05:25:50;;;;;;;8.23;3.60;;;3.80;99.90;;;;;;4978915;28;20159;-80
2022/04/18 05:28:16;;;;;;;5.75;3.63;;;4.00;99.90;;;;;;4980291;28;20643;-79
2022/04/18 05:30:42;;;;;;;7.28;4.00;;;4.20;99.90;;;;;;4985044;28;20041;-80
2022/04/18 05:33:08;;;;;;;9.27;3.75;;;4.40;99.90;;;;;;4972469;28;20182;-76
2022/04/18 05:35:33;;;;;;;6.53;3.33;;;4.60;99.70;;;;;;4981238;28;20113;-79
2022/04/18 05:37:59;;;;;;;5.32;3.47;;;4.80;99.20;;;;;;4982888;28;20053;-79
2022/04/18 05:40:25;;;;;;;7.15;3.55;;;5.00;98.60;;;;;;4985070;28;20022;-77
2022/04/18 05:42:54;;;;;;;5.50;3.30;;;5.10;97.80;;;;;;4984545;28;20456;-77
2022/04/18 05:45:19;;;;;;;7.63;3.92;;;5.10;97.20;;;;;;4984154;28;20030;-77
2022/04/18 05:47:45;;;;;;;6.38;3.08;;;5.20;96.90;;;;;;4982412;28;20087;-77
2022/04/18 05:50:11;;;;;;;6.07;3.50;;;5.20;96.80;;;;;;4982304;28;20402;-77
2022/04/18 05:52:36;;;;;;;7.22;3.70;;;5.20;96.80;;;;;;4979076;28;20035;-77
2022/04/18 05:55:02;;;;;;;5.95;3.50;;;5.20;96.80;;;;;;4982682;28;20034;-78
2022/04/18 05:57:28;;;;;;;6.70;3.80;;;5.30;96.70;;;;;;4985811;28;20033;-78
2022/04/18 05:59:53;;;;;;;6.35;3.28;;;5.40;96.10;;;;;;4984758;28;20022;-78
2022/04/18 06:02:19;;;;;;;5.47;3.67;;;5.50;96.10;;;;;;4979672;28;20019;-79
2022/04/18 06:04:45;;;;;;;5.13;3.13;;;5.50;96.10;;;;;;4986934;28;20052;-79
2022/04/18 06:07:11;;;;;;;6.93;3.40;;;5.60;96.10;;;;;;4984550;28;20076;-78
2022/04/18 06:09:37;;;;;;;5.68;3.33;;;5.70;95.70;;;;;;4984827;28;20065;-81
2022/04/18 06:12:03;;;;;;;5.30;2.72;;;5.80;95.40;;;;;;4981562;28;20027;-78
2022/04/18 06:14:28;;;;;;;4.75;3.17;;;5.90;95.20;;;;;;4986552;28;20471;-80
2022/04/18 06:16:54;;;;;;;6.00;3.67;;;6.00;95.50;;;;;;4987233;28;20096;-81
2022/04/18 06:19:19;;;;;;;6.50;4.00;;;6.10;95.40;;;;;;4999956;28;20110;-81
2022/04/18 06:21:48;;;;;;;6.18;3.90;;;6.20;95.50;;;;;;4978995;28;20123;-81
2022/04/18 06:24:13;;;;;;;6.20;4.05;;;6.30;95.30;;;;;;4985202;28;20034;-80
2022/04/18 06:26:39;;;;;;;7.45;3.88;;;6.40;94.90;;;;;;4988275;28;20038;-81
2022/04/18 06:29:05;;;;;;;10.73;4.00;;;6.40;94.70;;;;;;4983426;28;20030;-81
2022/04/18 06:31:30;;;;;;;6.32;4.10;;;6.50;94.60;;;;;;4983922;28;20038;-80
2022/04/18 06:33:56;;;;;;;7.40;4.25;;;6.40;94.40;;;;;;4984999;28;20030;-82
2022/04/18 06:36:22;;;;;;;5.85;3.95;;;6.50;94.60;;;;;;4983629;28;20124;-83
2022/04/18 06:39:06;;;;;;;7.75;4.13;;;6.50;94.40;;;;;;4979950;28;20421;-83
2022/04/18 06:41:31;;;;;;;5.82;4.00;;;6.60;94.30;;;;;;5020699;23;20053;-73
2022/04/18 06:43:57;;;;;;;6.10;4.07;;;6.60;94.30;;;;;;5037298;28;20032;-73
2022/04/18 06:46:23;;;;;;;7.05;3.78;;;6.60;94.70;;;;;;5024202;28;20043;-73
2022/04/18 06:48:48;;;;;;;4.70;3.85;;;6.60;94.70;;;;;;5016326;28;20091;-74
2022/04/18 06:51:14;;;;;;;5.93;3.92;;;6.60;94.90;;;;;;5026284;28;20029;-73
2022/04/18 06:53:40;;;;;;;7.50;4.15;;;6.50;95.00;;;;;;5022115;28;20029;-73
2022/04/18 06:58:50;;;;;;;6.45;4.47;;;6.60;94.70;;;;;;5025490;28;20113;-73
2022/04/18 07:01:15;;;;;;;8.68;4.50;;;6.60;94.40;;;;;;5020027;28;20096;-73
2022/04/18 07:03:41;;;;;;;8.93;5.32;;;6.60;94.60;;;;;;5034657;28;20033;-73
2022/04/18 07:06:06;;;;;;;8.20;5.28;;;6.70;94.80;;;;;;5029255;28;20030;-72
2022/04/18 07:08:32;;;;;;;5.65;3.88;;;6.70;94.50;;;;;;5022488;28;20056;-73
2022/04/18 07:10:58;;;;;;;6.60;4.10;;;6.80;94.50;;;;;;5039499;28;20623;-75
2022/04/18 07:13:24;;;;;;;7.55;3.72;;;6.90;94.30;;;;;;5020987;28;20033;-73
2022/04/18 07:15:49;;;;;;;7.95;4.13;;;6.90;94.10;;;;;;5023715;28;20033;-73
2022/04/18 07:18:15;;;;;;;5.32;3.63;;;6.90;93.70;;;;;;5018648;28;20060;-74
2022/04/18 07:20:44;;;;;;;6.50;4.18;;;7.00;92.90;;;;;;5020274;28;20371;-73
2022/04/18 07:23:09;;;;;;;5.38;3.85;;;7.00;92.90;;;;;;5018466;28;20030;-74
2022/04/18 07:25:35;;;;;;;5.70;3.28;;;7.10;93.10;;;;;;5019671;28;20076;-72
2022/04/18 07:28:04;;;;;;;8.95;4.10;;;7.20;92.60;;;;;;5022628;28;20109;-71
2022/04/18 07:30:30;;;;;;;7.88;4.45;;;7.30;92.70;;;;;;5025022;28;20156;-72
2022/04/18 07:32:57;;;;;;;10.98;4.57;;;7.30;92.90;;;;;;5021872;28;20033;-71
2022/04/18 07:35:23;;;;;;;8.70;3.83;;;7.50;92.90;;;;;;5039315;28;20440;-71
2022/04/18 07:40:38;;;;;;;5.72;4.32;;;7.70;91.50;;;;;;5026782;28;20114;-75
2022/04/18 07:43:04;;;;;;;6.32;3.55;;;7.80;91.50;;;;;;5037621;28;20032;-73
2022/04/18 07:45:35;;;;;;;5.80;4.20;;;7.90;90.80;;;;;;5022365;28;20037;-72
2022/04/18 07:48:00;;;;;;;5.90;4.00;;;8.00;90.70;;;;;;5022910;28;20021;-72
2022/04/18 07:51:31;;;;;;;6.75;4.50;;;8.20;90.90;;;;;;5027851;28;20042;-71
2022/04/18 07:53:11;;;;;;;6.65;3.53;;;8.30;90.80;;;;;;5028886;28;20033;-73
2022/04/18 07:55:37;;;;;;;7.13;4.13;;;8.40;90.60;;;;;;5027399;28;20029;-70
2022/04/18 07:58:03;;;;;;;5.55;3.33;;;8.50;90.60;;;;;;5027056;28;20523;-72
2022/04/18 08:00:28;;;;;;;7.03;3.25;;;8.60;90.10;;;;;;5029758;28;20103;-72
2022/04/18 08:02:54;;;;;;;6.55;3.80;;;8.70;90.70;;;;;;5043159;28;20514;-72
2022/04/18 08:05:20;;;;;;;4.25;3.38;;;8.80;90.70;;;;;;5021735;28;20032;-71
2022/04/18 08:07:45;;;;;;;6.55;3.50;;;8.90;90.10;;;;;;5026626;28;20087;-72
2022/04/18 08:10:11;;;;;;;6.35;3.28;;;9.00;89.50;;;;;;5027299;28;20033;-72
2022/04/18 08:12:37;;;;;;;9.90;3.75;;;9.10;88.60;;;;;;5033891;28;20084;-73
2022/04/18 08:15:03;;;;;;;7.70;4.03;;;9.20;87.90;;;;;;5026444;28;20072;-72
2022/04/18 08:17:28;;;;;;;4.47;3.13;;;9.30;86.30;;;;;;5025705;28;20033;-73
2022/04/18 08:19:54;;;;;;;7.57;3.75;;;9.40;85.20;;;;;;5023439;28;20604;-73
2022/04/18 08:22:20;;;;;;;6.20;4.20;;;9.50;85.90;;;;;;5039612;28;20425;-73
2022/04/18 08:24:46;;;;;;;5.13;3.58;;;9.50;84.90;;;;;;5038001;28;20502;-75
2022/04/18 08:27:12;;;;;;;5.25;3.92;;;9.50;85.00;;;;;;5022238;28;20079;-73
2022/04/18 08:29:38;;;;;;;6.13;3.85;;;9.60;84.30;;;;;;5035135;28;20485;-72
2022/04/18 08:32:05;;;;;;;5.82;3.22;;;9.60;85.30;;;;;;5037334;28;20030;-72
2022/04/18 08:34:31;;;;;;;6.28;3.45;;;9.60;86.20;;;;;;5017792;28;20490;-72
2022/04/18 08:36:56;;;;;;;7.78;4.00;;;9.70;86.50;;;;;;5021827;28;20032;-71
2022/04/18 08:39:23;;;;;;;6.40;3.83;;;9.70;87.00;;;;;;5024277;28;20390;-72
2022/04/18 08:41:51;;;;;;;5.47;3.55;;;9.80;88.00;;;;;;5020159;28;20064;-73
2022/04/18 08:44:18;;;;;;;6.93;3.40;;;9.90;88.30;;;;;;5022020;28;20029;-73
2022/04/18 08:46:46;;;;;;;6.03;3.72;;;9.90;87.90;;;;;;5024759;28;20042;-73
2022/04/18 08:54:44;;;;;;;6.03;3.90;;;10.10;86.60;;;;;;5024530;28;20029;-72
2022/04/18 08:57:10;;;;;;;8.38;3.63;;;10.30;86.10;;;;;;5021659;28;20034;-72
2022/04/18 08:59:35;;;;;;;5.03;3.30;;;10.30;83.80;;;;;;5027616;28;20083;-74
2022/04/18 09:02:02;;;;;;;5.25;2.97;;;10.50;82.60;;;;;;5020339;28;20029;-73
2022/04/18 09:04:31;;;;;;;6.95;3.30;;;10.60;81.90;;;;;;5017568;28;20080;-74
2022/04/18 09:07:09;;;;;;;3.95;2.78;;;10.70;81.30;;;;;;5023389;28;20025;-73
2022/04/18 09:09:36;;;;;;;5.15;3.17;;;10.90;81.00;;;;;;5024348;28;20386;-72
2022/04/18 09:12:17;;;;;;;7.22;3.53;;;10.90;81.20;;;;;;5042996;28;20494;-72
2022/04/18 09:14:51;;;;;;;4.82;3.08;;;11.10;80.90;;;;;;5025747;28;20021;-72
2022/04/18 09:17:36;;;;;;;5.65;2.63;;;11.10;80.00;;;;;;5025523;28;20048;-72
2022/04/18 09:20:10;;;;;;;5.80;3.38;;;11.20;79.40;;;;;;5020175;28;21579;-72
2022/04/18 09:22:46;;;;;;;6.47;3.40;;;11.20;78.50;;;;;;5010602;28;20493;-72
2022/04/18 09:25:22;;;;;;;5.00;3.20;;;11.40;78.00;;;;;;5025592;28;20040;-73
2022/04/18 09:27:54;;;;;;;4.97;3.22;;;11.40;77.50;;;;;;5037216;28;20853;-73
2022/04/18 09:30:20;;;;;;;5.10;3.13;;;11.40;76.90;;;;;;5028668;28;20022;-73
2022/04/18 09:33:06;;;;;;;6.63;3.50;;;11.50;76.50;;;;;;5031751;28;20078;-73
2022/04/18 09:35:33;;;;;;;4.63;3.35;;;11.60;75.80;;;;;;5019987;28;20055;-73
2022/04/18 09:38:08;;;;;;;6.95;2.90;;;11.70;74.70;;;;;;5026220;28;20048;-73
2022/04/18 09:40:36;;;;;;;4.28;3.00;;;11.80;73.70;;;;;;5022674;28;20033;-74
2022/04/18 09:43:04;;;;;;;7.30;3.33;;;11.90;72.50;;;;;;5020211;28;20493;-74
2022/04/18 09:45:30;;;;;;;5.40;2.67;;;12.00;72.10;;;;;;5013154;28;20102;-74
2022/04/18 09:48:02;;;;;;;5.65;3.30;;;12.00;71.50;;;;;;5038003;28;20382;-74
2022/04/18 09:53:24;;;;;;;4.28;2.63;;;12.20;71.20;;;;;;5018253;28;20036;-73
2022/04/18 09:55:51;;;;;;;7.80;2.78;;;12.20;69.70;;;;;;5020694;28;20025;-72
2022/04/18 09:58:17;;;;;;;5.13;2.83;;;12.30;69.00;;;;;;5020986;28;20053;-72
2022/04/18 10:00:47;;;;;;;5.10;3.10;;;12.20;68.00;;;;;;5022038;28;20498;-73
2022/04/18 10:03:13;;;;;;;4.75;3.10;;;12.30;68.80;;;;;;5021957;28;20075;-73
2022/04/18 10:05:40;;;;;;;6.25;3.20;;;12.30;68.60;;;;;;5024399;28;20116;-73
2022/04/18 10:08:06;;;;;;;4.90;2.85;;;12.30;68.30;;;;;;5023140;28;20029;-73
2022/04/18 10:10:39;;;;;;;5.78;2.42;;;12.40;66.60;;;;;;5028338;28;20051;-74
2022/04/18 10:13:11;;;;;;;7.27;2.73;;;12.60;65.40;;;;;;5022758;28;20174;-72
2022/04/18 10:15:39;;;;;;;4.03;2.20;;;12.70;61.60;;;;;;5023012;28;20508;-73
2022/04/18 10:18:07;;;;;;;3.50;2.28;;;12.70;60.70;;;;;;5035771;28;20025;-73
2022/04/18 10:21:06;;;;;;;3.08;2.05;;;12.80;60.40;;;;;;5025898;28;20025;-73
2022/04/18 10:23:47;;;;;;;6.82;2.08;;;12.90;60.20;;;;;;5021304;28;20062;-73
2022/04/18 10:26:34;;;;;;;4.18;2.33;;;13.00;60.20;;;;;;5023577;28;20478;-74
2022/04/18 10:29:05;;;;;;;3.63;1.88;;;13.10;60.00;;;;;;5024869;28;20760;-73
2022/04/18 10:31:34;;;;;;;5.18;2.08;;;13.10;59.00;;;;;;5017454;28;20040;-73
2022/04/18 10:34:02;;;;;;;3.58;2.30;;;13.20;58.70;;;;;;5037891;28;20044;-72
2022/04/18 10:36:31;;;;;;;9.38;2.20;;;13.40;59.00;;;;;;5039081;28;20402;-73
2022/04/18 10:39:00;;;;;;;3.35;2.50;;;13.40;57.90;;;;;;5026449;28;20416;-73
2022/04/18 10:41:38;;;;;;;3.58;1.95;;;13.50;57.80;;;;;;5027329;28;20029;-73
2022/04/18 10:44:08;;;;;;;3.67;2.10;;;13.50;57.40;;;;;;5018810;28;20021;-74
2022/04/18 10:46:36;;;;;;;4.00;1.80;;;13.50;57.50;;;;;;5039181;28;20029;-74
2022/04/18 10:49:24;;;;;;;5.68;2.28;;;13.50;57.70;;;;;;5023496;28;20028;-73
2022/04/18 10:51:56;;;;;;;3.92;2.20;;;13.50;57.20;;;;;;5037297;28;20025;-73
2022/04/18 10:54:25;;;;;;;5.15;2.20;;;13.50;57.50;;;;;;5023066;28;20033;-75
2022/04/18 10:56:51;;;;;;;4.75;2.38;;;13.60;57.30;;;;;;5046076;23;20037;-82
2022/04/18 10:59:24;;;;;;;4.18;1.83;;;13.60;55.80;;;;;;5034069;28;20161;-83
2022/04/18 11:01:51;;;;;;;3.67;2.60;;;13.70;56.10;;;;;;5027714;28;20054;-79
2022/04/18 11:04:22;;;;;;;3.97;2.28;;;13.60;55.80;;;;;;5051716;28;20029;-85
2022/04/18 11:06:49;;;;;;;4.35;2.30;;;13.70;56.10;;;;;;5049480;28;20037;-83
2022/04/18 11:09:19;;;;;;;4.55;2.38;;;13.70;55.90;;;;;;5027820;28;20044;-81
2022/04/18 11:11:47;;;;;;;3.40;2.38;;;13.70;56.00;;;;;;5030937;28;20051;-81
2022/04/18 11:14:15;;;;;;;5.00;2.33;;;13.70;55.40;;;;;;5046456;28;20091;-77
2022/04/18 11:16:44;;;;;;;4.90;2.60;;;13.80;54.70;;;;;;5030863;28;20083;-80
2022/04/18 11:19:13;;;;;;;2.95;2.05;;;13.70;54.50;;;;;;5033306;28;20029;-79
2022/04/18 11:21:58;;;;;;;3.88;2.15;;;13.70;55.40;;;;;;5026730;28;20476;-79
2022/04/18 11:24:49;;;;;;;5.18;2.17;;;13.80;54.20;;;;;;5031524;28;20022;-81
2022/04/18 11:27:16;;;;;;;2.83;1.85;;;13.80;54.60;;;;;;5047788;28;20489;-81
2022/04/18 11:29:44;;;;;;;3.95;2.17;;;13.80;54.00;;;;;;5028894;28;20427;-79
2022/04/18 11:32:15;;;;;;;5.03;2.20;;;13.80;54.10;;;;;;5034411;28;20026;-85
2022/04/18 11:34:43;;;;;;;3.70;2.10;;;13.90;54.20;;;;;;5047285;28;20045;-78
2022/04/18 11:37:10;;;;;;;4.38;2.63;;;14.00;53.70;;;;;;5030621;28;20024;-81
2022/04/18 11:39:46;;;;;;;4.28;2.40;;;14.10;53.30;;;;;;5031389;28;20026;-84
2022/04/18 11:42:20;;;;;;;4.25;1.85;;;14.20;52.90;;;;;;5037735;28;20017;-82
2022/04/18 11:44:47;;;;;;;3.92;2.40;;;14.10;52.70;;;;;;5032889;28;20489;-84
2022/04/18 11:47:28;;;;;;;7.90;2.72;;;14.30;53.00;;;;;;5025187;28;20040;-81
2022/04/18 11:49:56;;;;;;;2.97;2.08;;;14.30;51.80;;;;;;5030360;28;20038;-82
2022/04/18 11:52:33;;;;;;;3.42;2.55;;;14.30;52.10;;;;;;5025110;28;20534;-83
2022/04/18 11:55:07;;;;;;;3.65;2.50;;;14.20;52.40;;;;;;5042206;28;20029;-81
2022/04/18 11:57:38;;;;;;;4.05;2.42;;;14.30;52.20;;;;;;5031491;28;20041;-78
2022/04/18 12:00:10;;;;;;;4.68;2.50;;;14.20;52.20;;;;;;5029511;28;20132;-82
2022/04/18 12:08:08;;;;;;;4.25;2.70;;;14.20;52.60;;;;;;5037084;28;20036;-84
2022/04/18 12:10:37;;;;;;;3.38;2.10;;;14.40;52.50;;;;;;5035522;28;20099;-81
2022/04/18 12:13:11;;;;;;;5.68;2.80;;;14.50;52.40;;;;;;5047544;28;20061;-78
2022/04/18 12:15:38;;;;;;;5.72;3.17;;;14.60;53.20;;;;;;5033515;28;20055;-85
2022/04/18 12:18:26;;;;;;;5.30;2.60;;;14.70;52.90;;;;;;5039615;28;20021;-84
2022/04/18 12:20:52;;;;;;;4.30;2.85;;;14.60;52.70;;;;;;5053388;28;20068;-85
2022/04/18 12:23:25;;;;;;;3.83;2.65;;;14.60;52.60;;;;;;5038145;28;20061;-84
2022/04/18 12:25:57;;;;;;;5.13;2.77;;;14.50;52.90;;;;;;5033513;28;20051;-87
2022/04/18 12:28:25;;;;;;;4.45;2.90;;;14.60;53.10;;;;;;5029997;28;20039;-84
2022/04/18 12:30:51;;;;;;;4.50;2.75;;;14.60;53.70;;;;;;5033300;28;20025;-76
2022/04/18 12:33:22;;;;;;;5.55;2.75;;;14.60;53.70;;;;;;5028244;28;20459;-86
2022/04/18 12:35:56;;;;;;;5.82;3.00;;;14.60;53.20;;;;;;5030356;28;20052;-84
2022/04/18 12:38:35;;;;;;;;;;;14.50;53.90;;;;;;5031943;28;20091;-84
2022/04/18 12:41:01;;;;;;;5.43;2.75;;;14.60;54.10;;;;;;5050077;22;19931;-75
2022/04/18 12:43:32;;;;;;;4.70;3.05;;;14.60;53.00;;;;;;5052263;28;20436;-76
2022/04/18 12:45:58;;;;;;;3.78;2.50;;;14.70;53.10;;;;;;5054649;28;20021;-76
2022/04/18 12:48:28;;;;;;;4.35;3.08;;;14.70;53.10;;;;;;5068992;28;20025;-75
2022/04/18 12:50:55;;;;;;;4.88;2.50;;;14.70;52.60;;;;;;5053646;28;20025;-76
2022/04/18 12:53:42;;;;;;;4.57;2.47;;;14.70;53.20;;;;;;5053089;28;20029;-72
2022/04/18 12:56:23;;;;;;;6.38;2.88;;;14.80;52.80;;;;;;5046349;28;20457;-72
2022/04/18 12:59:09;;;;;;;5.90;2.90;;;14.80;52.90;;;;;;5042219;28;20024;-72
2022/04/18 13:01:37;;;;;;;5.57;3.33;;;14.80;52.90;;;;;;5047147;28;20044;-72
2022/04/18 13:04:05;;;;;;;5.72;3.00;;;14.70;53.10;;;;;;5041924;28;20017;-72
2022/04/18 13:06:33;;;;;;;5.63;2.53;;;14.70;53.30;;;;;;5042753;28;20549;-72
2022/04/18 13:09:05;;;;;;;5.85;3.00;;;14.80;53.60;;;;;;5044516;28;20029;-72
2022/04/18 13:11:41;;;;;;;4.53;2.63;;;15.00;53.60;;;;;;5042772;28;20513;-72
2022/04/18 13:14:08;;;;;;;6.97;2.40;;;15.00;52.70;;;;;;5042063;28;20031;-72
2022/04/18 13:16:34;;;;;;;5.90;2.72;;;15.10;53.20;;;;;;5045601;28;20512;-72
2022/04/18 13:19:11;;;;;;;4.93;3.03;;;15.10;53.20;;;;;;5042118;28;20075;-72
2022/04/18 13:21:38;;;;;;;4.25;2.70;;;15.20;52.20;;;;;;5042948;28;20021;-72
2022/04/18 13:24:05;;;;;;;4.25;2.50;;;15.20;52.00;;;;;;5041357;28;20049;-72
2022/04/18 13:26:38;;;;;;;7.20;3.15;;;15.30;52.40;;;;;;5043325;28;20048;-72
2022/04/18 13:29:06;;;;;;;4.20;2.72;;;15.20;52.50;;;;;;5042426;28;20102;-72